Grande Europa — ICGE — position and weather

sailwx.info

Track history (hours):
 
Tides and Currents Weather Stations Pressure Air Temp Water Temp Dewpoint Dewpoint Depression Visibility Wind Speed Wind Dir Waves Ship Positions

Grande Europa

Last reported at 2014-Oct-02 06:33 UTC. Time now 2014-Oct-02 06:39 UTC.
Position N 50°51' W 001°21'.

Length 183 m; draft 9.1 m.

Type: Cargo ship. MMSI: 247206000.

Date/timePositionNaut miles runAvg speedWind from/ knotsBaromVisibWave heightAir tempDewpointWater temp
2014-Oct-02 06:33N 50°51' W 001°21'4 4.0
2014-Oct-02 05:29N 50°54' W 001°25'0 0.0
2014-Oct-02 04:32N 50°54' W 001°25'0 0.0
2014-Oct-02 03:32N 50°54' W 001°25'0 0.0
2014-Oct-02 02:32N 50°54' W 001°25'0 0.0
2014-Oct-02 01:32N 50°54' W 001°25'0 0.0
2014-Oct-02 00:32N 50°54' W 001°25'0 0.0
2014-Oct-01 23:32N 50°54' W 001°25'0 0.0
2014-Oct-01 22:32N 50°54' W 001°25'0 0.0
2014-Oct-01 21:32N 50°54' W 001°25'0 0.0
2014-Oct-01 20:32N 50°54' W 001°25'0 0.0
2014-Oct-01 19:32N 50°54' W 001°25'0 0.0
2014-Oct-01 18:32N 50°54' W 001°25'0 0.0
2014-Oct-01 17:32N 50°54' W 001°25'0 0.0
2014-Oct-01 16:32N 50°54' W 001°25'3 3.1
2014-Oct-01 15:33N 50°52' W 001°22'1010.2
2014-Oct-01 14:33N 50°46' W 001°09'1514.7
2014-Oct-01 13:33N 50°38' W 000°50'1615.8
2014-Oct-01 12:33N 50°31' W 000°28'1715.9
2014-Oct-01 11:28N 50°30' W 000°01'1516.5
2014-Oct-01 10:33N 50°34' E 000°22'1717.3
2014-Oct-01 09:33N 50°42' E 000°46'1818.0
2014-Oct-01 08:33N 50°54' E 001°09'1717.4
2014-Oct-01 07:33N 51°05' E 001°30'1616.1
2014-Oct-01 06:33N 51°16' E 001°49'1413.6
2014-Oct-01 05:33N 51°23' E 002°07'1615.3
2014-Oct-01 04:32N 51°23' E 002°32'1414.1
2014-Oct-01 03:33N 51°23' E 002°54'1514.7
2014-Oct-01 02:33N 51°25' E 003°17'1312.6
2014-Oct-01 01:33N 51°26' E 003°37'1211.7
2014-Oct-01 00:34N 51°22' E 003°54'9 9.1
2014-Sep-30 23:33N 51°23' E 004°09'9 8.7
2014-Sep-30 22:33N 51°16' E 004°18'1 1.0
2014-Sep-30 21:33N 51°16' E 004°17'2 1.9
2014-Sep-30 20:33N 51°17' E 004°14'1 0.7
2014-Sep-30 19:32N 51°16' E 004°13'0 0.0
2014-Sep-30 18:33N 51°16' E 004°13'0 0.0
2014-Sep-30 17:32N 51°16' E 004°13'0 0.0
2014-Sep-30 16:32N 51°16' E 004°13'0 0.0
2014-Sep-30 15:32N 51°16' E 004°13'0 0.0
2014-Sep-30 14:33N 51°16' E 004°13'0 0.0
2014-Sep-30 13:32N 51°16' E 004°13'0 0.0
2014-Sep-30 12:32N 51°16' E 004°13'0 0.0
2014-Sep-30 11:32N 51°16' E 004°13'0 0.0
2014-Sep-30 10:32N 51°16' E 004°13'0 0.0
2014-Sep-30 09:30N 51°16' E 004°13'0 0.0
2014-Sep-30 08:32N 51°16' E 004°13'0 0.0
2014-Sep-30 07:32N 51°16' E 004°13'2 2.5
2014-Sep-30 06:33N 51°16' E 004°17'0 0.2
2014-Sep-30 05:34N 51°16' E 004°17'2 2.2
2014-Sep-30 04:34N 51°18' E 004°17'8 8.0
2014-Sep-30 03:33N 51°22' E 004°06'9 9.3
2014-Sep-30 02:34N 51°21' E 003°51'1111.5
2014-Sep-30 01:34N 51°25' E 003°35'1717.0
2014-Sep-30 00:33N 51°24' E 003°07'1312.6
2014-Sep-29 23:33N 51°36' E 003°10'1313.6
2014-Sep-29 22:33N 51°49' E 003°16'1918.1
2014-Sep-29 21:31N 52°08' E 003°22'1717.7
2014-Sep-29 20:33N 52°25' E 003°27'1816.4
2014-Sep-29 19:27N 52°42' E 003°36'1616.6
2014-Sep-29 18:30N 52°54' E 003°53'3316.7
2014-Sep-29 16:32N 53°19' E 004°29'1918.3
2014-Sep-29 15:30N 53°37' E 004°39'1918.4
2014-Sep-29 14:26N 53°55' E 004°50'1618.3
2014-Sep-29 13:33N 54°10' E 004°59'1818.3
2014-Sep-29 12:33N 54°26' E 005°14'2018.1
2014-Sep-29 11:28N 54°43' E 005°31'1918.0
2014-Sep-29 10:26N 54°59' E 005°49'1618.1
2014-Sep-29 09:33N 55°12' E 006°03'1818.0
2014-Sep-29 08:33N 55°27' E 006°21'1817.9
2014-Sep-29 07:33N 55°43' E 006°36'1717.6
2014-Sep-29 06:33N 55°58' E 006°54'15316.8
2014-Sep-28 21:25N 57°49' E 010°08'1415.9
2014-Sep-28 20:33N 57°50' E 010°33'1615.8
2014-Sep-28 19:33N 57°51' E 011°03'1515.2
2014-Sep-28 18:33N 57°53' E 011°31'9 8.8
2014-Sep-28 17:29N 58°01' E 011°42'0 0.1
2014-Sep-28 16:32N 58°01' E 011°42'0 0.0
2014-Sep-28 15:32N 58°01' E 011°42'0 0.0
2014-Sep-28 14:32N 58°01' E 011°42'0 0.0
2014-Sep-28 13:32N 58°01' E 011°42'0 0.0
2014-Sep-28 12:29N 58°01' E 011°42'0 0.0
2014-Sep-28 11:32N 58°01' E 011°42'0 0.0
2014-Sep-28 10:32N 58°01' E 011°42'0 0.0
2014-Sep-28 09:32N 58°01' E 011°42'0 0.0
2014-Sep-28 08:32N 58°01' E 011°42'0 0.0
2014-Sep-28 07:32N 58°01' E 011°42'0 0.0
2014-Sep-28 06:33N 58°01' E 011°42'7 7.5
2014-Sep-28 05:33N 57°55' E 011°34'1110.6
2014-Sep-28 04:33N 57°51' E 011°15'1414.5
2014-Sep-28 03:33N 57°51' E 010°48'1919.0
2014-Sep-28 02:33N 57°48' E 010°13'1918.8
2014-Sep-28 01:32N 57°45' E 009°37'1918.7
2014-Sep-28 00:32N 57°35' E 009°08'1818.7
2014-Sep-27 23:33N 57°23' E 008°42'1818.5
2014-Sep-27 22:33N 57°11' E 008°17'1818.2
2014-Sep-27 21:33N 56°55' E 007°59'1817.6
2014-Sep-27 20:32N 56°39' E 007°45'1817.7
2014-Sep-27 19:30N 56°21' E 007°38'1617.4
2014-Sep-27 18:33N 56°05' E 007°31'1717.4
2014-Sep-27 17:33N 55°48' E 007°24'1616.0
2014-Sep-27 16:33N 55°32' E 007°23'1717.5
2014-Sep-27 15:33N 55°24' E 007°50'1413.6
2014-Sep-27 14:33N 55°26' E 008°14'7 6.8
2014-Sep-27 13:33N 55°28' E 008°25'1 0.9
2014-Sep-27 12:29N 55°28' E 008°27'0 0.0
2014-Sep-27 11:32N 55°28' E 008°27'0 0.0
2014-Sep-27 10:32N 55°28' E 008°27'0 0.0
2014-Sep-27 09:32N 55°28' E 008°27'0 0.0
2014-Sep-27 08:32N 55°28' E 008°27'0 0.0
2014-Sep-27 07:32N 55°28' E 008°27'0 0.0
2014-Sep-27 06:32N 55°28' E 008°27'0 0.0
2014-Sep-27 05:32N 55°28' E 008°27'0 0.0
2014-Sep-27 04:32N 55°28' E 008°27'0 0.0
2014-Sep-27 03:23N 55°28' E 008°27'3 4.1
2014-Sep-27 02:34N 55°29' E 008°21'1111.0
2014-Sep-27 01:33N 55°23' E 008°05'1514.7
2014-Sep-27 00:33N 55°12' E 007°47'1514.6
2014-Sep-26 23:33N 55°03' E 007°27'1414.5
2014-Sep-26 22:33N 54°56' E 007°05'1514.8
2014-Sep-26 21:32N 54°49' E 006°42'4514.8
2014-Sep-26 18:30N 54°26' E 005°36'1414.3
2014-Sep-26 17:33N 54°17' E 005°18'1414.1
2014-Sep-26 16:33N 54°08' E 004°60'1414.0
2014-Sep-26 15:33N 53°58' E 004°42'8413.8
2014-Sep-26 09:27N 52°51' E 003°18'1313.8
2014-Sep-26 08:32N 52°40' E 003°08'6015.1
2014-Sep-26 04:32N 51°44' E 002°31'1616.7
2014-Sep-26 03:33N 51°31' E 002°15'1717.2
2014-Sep-26 02:33N 51°18' E 001°57'1817.9
2014-Sep-26 01:33N 51°05' E 001°38'1917.9
2014-Sep-26 00:31N 50°48' E 001°24'1616.4
2014-Sep-25 23:33N 50°36' E 001°09'1616.0
2014-Sep-25 22:33N 50°29' E 000°46'1717.2
2014-Sep-25 21:33N 50°24' E 000°20'27112.7
2014-Sep-25 00:10N 50°49' W 006°46'1015.0
2014-Sep-24 23:30N 50°56' W 006°58'1715.1
2014-Sep-24 22:22N 51°08' W 007°17'1215.2
2014-Sep-24 21:33N 51°17' W 007°30'1515.3
2014-Sep-24 20:33N 51°28' W 007°47'1615.5
2014-Sep-24 19:33N 51°39' W 008°05'1312.9
2014-Sep-24 18:33N 51°50' W 008°16'2 2.2
2014-Sep-24 17:32N 51°50' W 008°20'0 0.0
2014-Sep-24 16:29N 51°50' W 008°20'0 0.0
2014-Sep-24 15:29N 51°50' W 008°20'0 0.0
2014-Sep-24 14:32N 51°50' W 008°20'0 0.0
2014-Sep-24 13:32N 51°50' W 008°20'0 0.0
2014-Sep-24 12:32N 51°50' W 008°20'0 0.0
2014-Sep-24 11:32N 51°50' W 008°20'0 0.0
2014-Sep-24 10:32N 51°50' W 008°20'0 0.0
2014-Sep-24 09:32N 51°50' W 008°20'0 0.0
2014-Sep-24 08:32N 51°50' W 008°20'4 4.1
2014-Sep-24 07:34N 51°47' W 008°15'1010.4
2014-Sep-24 06:34N 51°44' W 007°59'1515.4
2014-Sep-24 05:33N 51°41' W 007°35'15917.7
2014-Sep-23 20:33N 51°21' W 003°21'1515.2
2014-Sep-23 19:34N 51°27' W 002°59'1010.1
2014-Sep-23 18:34N 51°30' W 002°44'0 0.4
2014-Sep-23 17:33N 51°30' W 002°43'0 0.0
2014-Sep-23 16:33N 51°30' W 002°43'0 0.0
2014-Sep-23 15:33N 51°30' W 002°43'0 0.0
2014-Sep-23 14:33N 51°30' W 002°43'0 0.0
2014-Sep-23 13:33N 51°30' W 002°43'0 0.0
2014-Sep-23 12:33N 51°30' W 002°43'0 0.0
2014-Sep-23 11:33N 51°30' W 002°43'0 0.0
2014-Sep-23 10:33N 51°30' W 002°43'0 0.0
2014-Sep-23 09:33N 51°30' W 002°43'0 0.0
2014-Sep-23 08:33N 51°30' W 002°43'0 0.0
2014-Sep-23 07:33N 51°30' W 002°43'0 0.0
2014-Sep-23 06:33N 51°30' W 002°43'0 0.0
2014-Sep-23 05:33N 51°30' W 002°43'0 0.0
2014-Sep-23 04:33N 51°30' W 002°43'0 0.0
2014-Sep-23 03:33N 51°30' W 002°43'0 0.0
2014-Sep-23 02:33N 51°30' W 002°43'0 0.0
2014-Sep-23 01:33N 51°30' W 002°43'0 0.0
2014-Sep-23 00:33N 51°30' W 002°43'0 0.0
2014-Sep-22 23:33N 51°30' W 002°43'0 0.0
2014-Sep-22 22:33N 51°30' W 002°43'0 0.0
2014-Sep-22 21:33N 51°30' W 002°43'0 0.0
2014-Sep-22 20:33N 51°30' W 002°43'0 0.4
2014-Sep-22 19:33N 51°30' W 002°43'3 3.3
2014-Sep-22 18:33N 51°29' W 002°49'1414.2
2014-Sep-22 17:33N 51°22' W 003°08'8015.1
2014-Sep-22 12:13N 50°49' W 005°04'1116.2
2014-Sep-22 11:33N 50°41' W 005°17'1616.2
2014-Sep-22 10:33N 50°31' W 005°36'  
Track history (hours):
 
Tides and Currents Weather Stations Pressure Air Temp Water Temp Dewpoint Dewpoint Depression Visibility Wind Speed Wind Dir Waves Ship Positions

Grande Europa

Last reported at 2014-Oct-02 06:33 UTC. Time now 2014-Oct-02 06:39 UTC.
Position N 50°51' W 001°21'.

Length 183 m; draft 9.1 m.

Type: Cargo ship. MMSI: 247206000.

Date/timePositionNaut miles runAvg speedWind from/ knotsBaromVisibWave heightAir tempDewpointWater temp
2014-Oct-02 06:33N 50°51' W 001°21'4 4.0
2014-Oct-02 05:29N 50°54' W 001°25'0 0.0
2014-Oct-02 04:32N 50°54' W 001°25'0 0.0
2014-Oct-02 03:32N 50°54' W 001°25'0 0.0
2014-Oct-02 02:32N 50°54' W 001°25'0 0.0
2014-Oct-02 01:32N 50°54' W 001°25'0 0.0
2014-Oct-02 00:32N 50°54' W 001°25'0 0.0
2014-Oct-01 23:32N 50°54' W 001°25'0 0.0
2014-Oct-01 22:32N 50°54' W 001°25'0 0.0
2014-Oct-01 21:32N 50°54' W 001°25'0 0.0
2014-Oct-01 20:32N 50°54' W 001°25'0 0.0
2014-Oct-01 19:32N 50°54' W 001°25'0 0.0
2014-Oct-01 18:32N 50°54' W 001°25'0 0.0
2014-Oct-01 17:32N 50°54' W 001°25'0 0.0
2014-Oct-01 16:32N 50°54' W 001°25'3 3.1
2014-Oct-01 15:33N 50°52' W 001°22'1010.2
2014-Oct-01 14:33N 50°46' W 001°09'1514.7
2014-Oct-01 13:33N 50°38' W 000°50'1615.8
2014-Oct-01 12:33N 50°31' W 000°28'1715.9
2014-Oct-01 11:28N 50°30' W 000°01'1516.5
2014-Oct-01 10:33N 50°34' E 000°22'1717.3
2014-Oct-01 09:33N 50°42' E 000°46'1818.0
2014-Oct-01 08:33N 50°54' E 001°09'1717.4
2014-Oct-01 07:33N 51°05' E 001°30'1616.1
2014-Oct-01 06:33N 51°16' E 001°49'1413.6
2014-Oct-01 05:33N 51°23' E 002°07'1615.3
2014-Oct-01 04:32N 51°23' E 002°32'1414.1
2014-Oct-01 03:33N 51°23' E 002°54'1514.7
2014-Oct-01 02:33N 51°25' E 003°17'1312.6
2014-Oct-01 01:33N 51°26' E 003°37'1211.7
2014-Oct-01 00:34N 51°22' E 003°54'9 9.1
2014-Sep-30 23:33N 51°23' E 004°09'9 8.7
2014-Sep-30 22:33N 51°16' E 004°18'1 1.0
2014-Sep-30 21:33N 51°16' E 004°17'2 1.9
2014-Sep-30 20:33N 51°17' E 004°14'1 0.7
2014-Sep-30 19:32N 51°16' E 004°13'0 0.0
2014-Sep-30 18:33N 51°16' E 004°13'0 0.0
2014-Sep-30 17:32N 51°16' E 004°13'0 0.0
2014-Sep-30 16:32N 51°16' E 004°13'0 0.0
2014-Sep-30 15:32N 51°16' E 004°13'0 0.0
2014-Sep-30 14:33N 51°16' E 004°13'0 0.0
2014-Sep-30 13:32N 51°16' E 004°13'0 0.0
2014-Sep-30 12:32N 51°16' E 004°13'0 0.0
2014-Sep-30 11:32N 51°16' E 004°13'0 0.0
2014-Sep-30 10:32N 51°16' E 004°13'0 0.0
2014-Sep-30 09:30N 51°16' E 004°13'0 0.0
2014-Sep-30 08:32N 51°16' E 004°13'0 0.0
2014-Sep-30 07:32N 51°16' E 004°13'2 2.5
2014-Sep-30 06:33N 51°16' E 004°17'0 0.2
2014-Sep-30 05:34N 51°16' E 004°17'2 2.2
2014-Sep-30 04:34N 51°18' E 004°17'8 8.0
2014-Sep-30 03:33N 51°22' E 004°06'9 9.3
2014-Sep-30 02:34N 51°21' E 003°51'1111.5
2014-Sep-30 01:34N 51°25' E 003°35'1717.0
2014-Sep-30 00:33N 51°24' E 003°07'1312.6
2014-Sep-29 23:33N 51°36' E 003°10'1313.6
2014-Sep-29 22:33N 51°49' E 003°16'1918.1
2014-Sep-29 21:31N 52°08' E 003°22'1717.7
2014-Sep-29 20:33N 52°25' E 003°27'1816.4
2014-Sep-29 19:27N 52°42' E 003°36'1616.6
2014-Sep-29 18:30N 52°54' E 003°53'3316.7
2014-Sep-29 16:32N 53°19' E 004°29'1918.3
2014-Sep-29 15:30N 53°37' E 004°39'1918.4
2014-Sep-29 14:26N 53°55' E 004°50'1618.3
2014-Sep-29 13:33N 54°10' E 004°59'1818.3
2014-Sep-29 12:33N 54°26' E 005°14'2018.1
2014-Sep-29 11:28N 54°43' E 005°31'1918.0
2014-Sep-29 10:26N 54°59' E 005°49'1618.1
2014-Sep-29 09:33N 55°12' E 006°03'1818.0
2014-Sep-29 08:33N 55°27' E 006°21'1817.9
2014-Sep-29 07:33N 55°43' E 006°36'1717.6
2014-Sep-29 06:33N 55°58' E 006°54'15316.8
2014-Sep-28 21:25N 57°49' E 010°08'1415.9
2014-Sep-28 20:33N 57°50' E 010°33'1615.8
2014-Sep-28 19:33N 57°51' E 011°03'1515.2
2014-Sep-28 18:33N 57°53' E 011°31'9 8.8
2014-Sep-28 17:29N 58°01' E 011°42'0 0.1
2014-Sep-28 16:32N 58°01' E 011°42'0 0.0
2014-Sep-28 15:32N 58°01' E 011°42'0 0.0
2014-Sep-28 14:32N 58°01' E 011°42'0 0.0
2014-Sep-28 13:32N 58°01' E 011°42'0 0.0
2014-Sep-28 12:29N 58°01' E 011°42'0 0.0
2014-Sep-28 11:32N 58°01' E 011°42'0 0.0
2014-Sep-28 10:32N 58°01' E 011°42'0 0.0
2014-Sep-28 09:32N 58°01' E 011°42'0 0.0
2014-Sep-28 08:32N 58°01' E 011°42'0 0.0
2014-Sep-28 07:32N 58°01' E 011°42'0 0.0
2014-Sep-28 06:33N 58°01' E 011°42'7 7.5
2014-Sep-28 05:33N 57°55' E 011°34'1110.6
2014-Sep-28 04:33N 57°51' E 011°15'1414.5
2014-Sep-28 03:33N 57°51' E 010°48'1919.0
2014-Sep-28 02:33N 57°48' E 010°13'1918.8
2014-Sep-28 01:32N 57°45' E 009°37'1918.7
2014-Sep-28 00:32N 57°35' E 009°08'1818.7
2014-Sep-27 23:33N 57°23' E 008°42'1818.5
2014-Sep-27 22:33N 57°11' E 008°17'1818.2
2014-Sep-27 21:33N 56°55' E 007°59'1817.6
2014-Sep-27 20:32N 56°39' E 007°45'1817.7
2014-Sep-27 19:30N 56°21' E 007°38'1617.4
2014-Sep-27 18:33N 56°05' E 007°31'1717.4
2014-Sep-27 17:33N 55°48' E 007°24'1616.0
2014-Sep-27 16:33N 55°32' E 007°23'1717.5
2014-Sep-27 15:33N 55°24' E 007°50'1413.6
2014-Sep-27 14:33N 55°26' E 008°14'7 6.8
2014-Sep-27 13:33N 55°28' E 008°25'1 0.9
2014-Sep-27 12:29N 55°28' E 008°27'0 0.0
2014-Sep-27 11:32N 55°28' E 008°27'0 0.0
2014-Sep-27 10:32N 55°28' E 008°27'0 0.0
2014-Sep-27 09:32N 55°28' E 008°27'0 0.0
2014-Sep-27 08:32N 55°28' E 008°27'0 0.0
2014-Sep-27 07:32N 55°28' E 008°27'0 0.0
2014-Sep-27 06:32N 55°28' E 008°27'0 0.0
2014-Sep-27 05:32N 55°28' E 008°27'0 0.0
2014-Sep-27 04:32N 55°28' E 008°27'0 0.0
2014-Sep-27 03:23N 55°28' E 008°27'3 4.1
2014-Sep-27 02:34N 55°29' E 008°21'1111.0
2014-Sep-27 01:33N 55°23' E 008°05'1514.7
2014-Sep-27 00:33N 55°12' E 007°47'1514.6
2014-Sep-26 23:33N 55°03' E 007°27'1414.5
2014-Sep-26 22:33N 54°56' E 007°05'1514.8
2014-Sep-26 21:32N 54°49' E 006°42'4514.8
2014-Sep-26 18:30N 54°26' E 005°36'1414.3
2014-Sep-26 17:33N 54°17' E 005°18'1414.1
2014-Sep-26 16:33N 54°08' E 004°60'1414.0
2014-Sep-26 15:33N 53°58' E 004°42'8413.8
2014-Sep-26 09:27N 52°51' E 003°18'1313.8
2014-Sep-26 08:32N 52°40' E 003°08'6015.1
2014-Sep-26 04:32N 51°44' E 002°31'1616.7
2014-Sep-26 03:33N 51°31' E 002°15'1717.2
2014-Sep-26 02:33N 51°18' E 001°57'1817.9
2014-Sep-26 01:33N 51°05' E 001°38'1917.9
2014-Sep-26 00:31N 50°48' E 001°24'1616.4
2014-Sep-25 23:33N 50°36' E 001°09'1616.0
2014-Sep-25 22:33N 50°29' E 000°46'1717.2
2014-Sep-25 21:33N 50°24' E 000°20'27112.7
2014-Sep-25 00:10N 50°49' W 006°46'1015.0
2014-Sep-24 23:30N 50°56' W 006°58'1715.1
2014-Sep-24 22:22N 51°08' W 007°17'1215.2
2014-Sep-24 21:33N 51°17' W 007°30'1515.3
2014-Sep-24 20:33N 51°28' W 007°47'1615.5
2014-Sep-24 19:33N 51°39' W 008°05'1312.9
2014-Sep-24 18:33N 51°50' W 008°16'2 2.2
2014-Sep-24 17:32N 51°50' W 008°20'0 0.0
2014-Sep-24 16:29N 51°50' W 008°20'0 0.0
2014-Sep-24 15:29N 51°50' W 008°20'0 0.0
2014-Sep-24 14:32N 51°50' W 008°20'0 0.0
2014-Sep-24 13:32N 51°50' W 008°20'0 0.0
2014-Sep-24 12:32N 51°50' W 008°20'0 0.0
2014-Sep-24 11:32N 51°50' W 008°20'0 0.0
2014-Sep-24 10:32N 51°50' W 008°20'0 0.0
2014-Sep-24 09:32N 51°50' W 008°20'0 0.0
2014-Sep-24 08:32N 51°50' W 008°20'4 4.1
2014-Sep-24 07:34N 51°47' W 008°15'1010.4
2014-Sep-24 06:34N 51°44' W 007°59'1515.4
2014-Sep-24 05:33N 51°41' W 007°35'15917.7
2014-Sep-23 20:33N 51°21' W 003°21'1515.2
2014-Sep-23 19:34N 51°27' W 002°59'1010.1
2014-Sep-23 18:34N 51°30' W 002°44'0 0.4
2014-Sep-23 17:33N 51°30' W 002°43'0 0.0
2014-Sep-23 16:33N 51°30' W 002°43'0 0.0
2014-Sep-23 15:33N 51°30' W 002°43'0 0.0
2014-Sep-23 14:33N 51°30' W 002°43'0 0.0
2014-Sep-23 13:33N 51°30' W 002°43'0 0.0
2014-Sep-23 12:33N 51°30' W 002°43'0 0.0
2014-Sep-23 11:33N 51°30' W 002°43'0 0.0
2014-Sep-23 10:33N 51°30' W 002°43'0 0.0
2014-Sep-23 09:33N 51°30' W 002°43'0 0.0
2014-Sep-23 08:33N 51°30' W 002°43'0 0.0
2014-Sep-23 07:33N 51°30' W 002°43'0 0.0
2014-Sep-23 06:33N 51°30' W 002°43'0 0.0
2014-Sep-23 05:33N 51°30' W 002°43'0 0.0
2014-Sep-23 04:33N 51°30' W 002°43'0 0.0
2014-Sep-23 03:33N 51°30' W 002°43'0 0.0
2014-Sep-23 02:33N 51°30' W 002°43'0 0.0
2014-Sep-23 01:33N 51°30' W 002°43'0 0.0
2014-Sep-23 00:33N 51°30' W 002°43'0 0.0
2014-Sep-22 23:33N 51°30' W 002°43'0 0.0
2014-Sep-22 22:33N 51°30' W 002°43'0 0.0
2014-Sep-22 21:33N 51°30' W 002°43'0 0.0
2014-Sep-22 20:33N 51°30' W 002°43'0 0.4
2014-Sep-22 19:33N 51°30' W 002°43'3 3.3
2014-Sep-22 18:33N 51°29' W 002°49'1414.2
2014-Sep-22 17:33N 51°22' W 003°08'8015.1
2014-Sep-22 12:13N 50°49' W 005°04'1116.2
2014-Sep-22 11:33N 50°41' W 005°17'1616.2
2014-Sep-22 10:33N 50°31' W 005°36'  

Dump ship's entire track history